PDT,Max TemperatureF,Mean TemperatureF,Min TemperatureF,Max Dew PointF,MeanDew PointF,Min DewpointF,Max Humidity, Mean Humidity, Min Humidity, Max Sea Level PressureIn, Mean Sea Level PressureIn, Min Sea Level PressureIn, Max VisibilityMiles, Mean VisibilityMiles, Min VisibilityMiles, Max Wind SpeedMPH, Mean Wind SpeedMPH, Max Gust SpeedMPH,PrecipitationIn, CloudCover, Events, WindDirDegrees
2012-10-1,83,63,42,47,37,31,65,43,20,30.27,30.10,29.86,10,10,10,15,5,18,0.00,1,,181
2012-10-2,68,57,46,44,28,15,51,35,18,30.31,30.05,29.88,10,9,5,39,16,52,0.00,0,,359
2012-10-3,64,50,36,28,24,19,53,36,19,30.50,30.41,30.34,10,10,10,20,8,25,0.00,0,,336
2012-10-4,65,49,33,25,21,17,56,36,16,30.40,30.35,30.29,10,10,10,20,9,24,0.00,0,,345
2012-10-5,65,48,31,24,20,17,58,38,17,30.45,30.38,30.32,10,10,10,13,5,16,0.00,0,,335
2012-10-6,69,49,29,30,25,20,64,43,22,30.41,30.32,30.22,10,10,10,12,5,16,0.00,0,,340
2012-10-7,70,49,27,33,29,22,81,52,23,30.22,30.11,29.98,10,10,10,9,3,12,0.00,0,,248
2012-10-8,77,55,32,37,33,28,82,53,23,30.00,29.95,29.87,10,10,6,13,5,17,0.00,0,,326
2012-10-9,77,60,42,39,34,33,65,43,21,30.09,30.01,29.96,10,10,9,12,5,14,0.00,0,,315
2012-10-10,72,54,36,39,35,31,82,56,29,29.98,29.93,29.84,10,8,2,8,3,10,0.00,0,,303
2012-10-11,74,59,44,38,36,35,65,46,27,30.00,29.89,29.76,10,10,10,14,6,16,0.00,0,,304
2012-10-12,64,52,39,41,38,33,73,55,37,29.86,29.78,29.73,10,10,10,12,5,25,T,1,Rain,184
2012-10-13,68,58,48,50,45,42,77,61,45,30.07,30.01,29.87,10,10,10,16,8,20,T,5,Rain,172
2012-10-14,65,61,57,50,49,47,72,64,56,30.06,29.93,29.82,10,10,9,26,14,33,T,3,Rain,177
2012-10-15,71,59,46,55,48,40,86,61,35,29.86,29.73,29.47,10,10,10,21,9,29,0.06,3,Rain,187
2012-10-16,64,49,34,55,31,20,55,40,24,30.06,29.72,29.38,10,10,10,26,10,36,0.00,1,,219
2012-10-17,60,43,26,31,25,21,78,51,23,30.28,30.22,30.10,10,10,10,7,3,,0.00,2,,215
2012-10-18,63,54,45,38,33,31,65,48,30,30.25,30.10,29.83,10,10,10,15,7,21,T,4,Rain,198
2012-10-19,71,56,41,45,38,27,66,52,37,29.79,29.64,29.52,10,10,10,18,7,25,T,4,,187
2012-10-20,58,43,28,29,21,10,64,40,16,29.83,29.72,29.59,10,10,10,20,9,28,0.00,1,,184
2012-10-21,50,37,24,29,23,16,75,61,46,29.93,29.89,29.84,10,10,10,10,5,16,0.00,2,,265
2012-10-22,48,41,34,36,30,27,92,69,45,29.89,29.71,29.60,10,10,9,25,11,33,0.16,7,Rain,349
2012-10-23,43,39,35,37,35,33,92,84,76,29.98,29.83,29.64,10,10,7,7,1,8,0.08,8,Rain,292
2012-10-24,45,41,37,36,36,35,92,81,70,30.18,30.05,29.98,10,10,7,15,9,20,0.13,8,Rain,344
2012-10-25,51,43,35,37,35,33,92,71,50,30.43,30.34,30.17,10,10,10,13,5,16,0.02,5,Rain,342
2012-10-26,42,41,39,39,37,35,93,85,76,30.39,30.24,30.11,10,8,4,7,3,,0.17,8,Rain,192
2012-10-27,42,41,39,40,38,37,100,93,86,30.09,30.01,29.84,10,9,4,10,4,13,0.16,8,Rain,188
2012-10-28,49,46,42,45,42,39,100,90,80,29.95,29.89,29.81,10,9,4,9,2,13,0.06,8,Rain,179
2012-10-29,59,50,40,49,45,39,100,84,67,29.97,29.84,29.77,10,6,1,13,4,14,0.22,7,Rain,196
2012-10-30,53,47,41,49,46,37,93,84,74,29.98,29.90,29.87,10,7,2,15,3,20,0.13,7,Rain,196
2012-10-31,52,51,49,50,48,48,100,95,89,29.87,29.77,29.69,10,4,0,9,2,12,0.14,8,Fog-Rain,298